Time;durP1;ratioP1;P1;durP2;ratioP2;P2;SDS_P1;SDS_P2;PMS_P1;PMS_P2;Temp;Humidity;BMP_temperature;BMP_pressure;BME280_temperature;BME280_humidity;BME280_pressure;Samples;Min_cycle;Max_cycle;Signal;HPM_P1;HPM_P2
2020/12/28 00:01:33;;;;;;;24.03;8.87;;;;;;;;;;5050300;28;20227;-80
2020/12/28 00:04:39;;;;;;;19.07;8.33;;;;;;;;;;5051908;28;20202;-79
2020/12/28 00:07:44;;;;;;;17.00;8.07;;;;;;;;;;5027570;28;20207;-80
2020/12/28 00:10:48;;;;;;;21.33;8.30;;;;;;;;;;5048951;28;20235;-79
2020/12/28 00:13:53;;;;;;;20.67;8.63;;;;;;;;;;5054266;28;20227;-79
2020/12/28 00:16:58;;;;;;;20.87;8.03;;;;;;;;;;5032603;28;20584;-80
2020/12/28 00:20:03;;;;;;;19.73;8.03;;;;;;;;;;5054291;28;20231;-80
2020/12/28 00:23:08;;;;;;;19.07;7.70;;;;;;;;;;5049283;28;20228;-80
2020/12/28 00:26:12;;;;;;;17.60;8.13;;;;;;;;;;5041886;28;20263;-80
2020/12/28 00:29:17;;;;;;;18.83;7.77;;;;;;;;;;5042521;28;20207;-79
2020/12/28 00:32:22;;;;;;;16.93;7.33;;;;;;;;;;5043285;28;20449;-80
2020/12/28 00:35:29;;;;;;;16.67;7.73;;;;;;;;;;5051719;28;20229;-80
2020/12/28 00:38:34;;;;;;;18.93;7.90;;;;;;;;;;5038353;28;20195;-80
2020/12/28 00:41:39;;;;;;;18.13;7.50;;;;;;;;;;5036839;28;20255;-80
2020/12/28 00:44:43;;;;;;;17.83;7.17;;;;;;;;;;5045499;28;20234;-80
2020/12/28 00:47:48;;;;;;;17.10;7.57;;;;;;;;;;5057277;28;20223;-79
2020/12/28 00:50:54;;;;;;;17.03;7.23;;;;;;;;;;5021244;28;20224;-80
2020/12/28 00:53:59;;;;;;;19.20;7.83;;;;;;;;;;5039517;28;20198;-80
2020/12/28 00:57:05;;;;;;;20.53;7.10;;;;;;;;;;5040509;28;20199;-79
2020/12/28 01:00:10;;;;;;;18.73;6.93;;;;;;;;;;5059882;28;20195;-80
2020/12/28 01:03:26;;;;;;;15.77;6.83;;;;;;;;;;5043047;28;20214;-80
2020/12/28 01:06:50;;;;;;;17.73;7.57;;;;;;;;;;5044899;28;20207;-79
2020/12/28 01:10:14;;;;;;;15.60;7.00;;;;;;;;;;5026981;28;20249;-79
2020/12/28 01:13:22;;;;;;;18.57;7.57;;;;;;;;;;5052370;28;20255;-79
2020/12/28 01:16:33;;;;;;;17.20;7.30;;;;;;;;;;5038266;28;20220;-79
2020/12/28 01:19:39;;;;;;;18.70;7.67;;;;;;;;;;5054314;28;20226;-80
2020/12/28 01:22:45;;;;;;;18.70;7.73;;;;;;;;;;5068302;28;20234;-79
2020/12/28 01:25:50;;;;;;;19.27;8.20;;;;;;;;;;5041665;28;20196;-79
2020/12/28 01:28:54;;;;;;;20.47;8.20;;;;;;;;;;5046830;28;20259;-79
2020/12/28 01:32:02;;;;;;;19.20;8.53;;;;;;;;;;5037259;28;20253;-80
2020/12/28 01:35:30;;;;;;;19.93;8.07;;;;;;;;;;5046347;28;20222;-80
2020/12/28 01:38:35;;;;;;;20.27;8.43;;;;;;;;;;5052674;28;20226;-79
2020/12/28 01:41:40;;;;;;;17.20;7.60;;;;;;;;;;5020227;28;20243;-78
2020/12/28 01:44:45;;;;;;;18.83;7.70;;;;;;;;;;5040386;28;20218;-80
2020/12/28 01:47:58;;;;;;;18.83;7.77;;;;;;;;;;5028529;28;20212;-80
2020/12/28 01:51:03;;;;;;;18.77;7.07;;;;;;;;;;5054622;28;21048;-79
2020/12/28 01:54:08;;;;;;;22.20;7.30;;;;;;;;;;5041898;28;20618;-80
2020/12/28 01:57:21;;;;;;;22.33;7.60;;;;;;;;;;5037521;28;20207;-78
2020/12/28 02:00:42;;;;;;;16.70;7.30;;;;;;;;;;5057089;28;20224;-79
2020/12/28 02:03:47;;;;;;;15.83;7.10;;;;;;;;;;5046107;28;20270;-79
2020/12/28 02:07:16;;;;;;;14.93;6.80;;;;;;;;;;5039929;28;20230;-79
2020/12/28 02:10:21;;;;;;;14.73;6.67;;;;;;;;;;5049167;28;20229;-80
2020/12/28 02:13:26;;;;;;;16.90;7.17;;;;;;;;;;5029412;28;20231;-79
2020/12/28 02:16:58;;;;;;;15.70;6.73;;;;;;;;;;5041189;28;20234;-80
2020/12/28 02:20:06;;;;;;;17.20;7.13;;;;;;;;;;5053985;28;20226;-80
2020/12/28 02:23:13;;;;;;;18.33;6.90;;;;;;;;;;5054902;28;20259;-79
2020/12/28 02:26:18;;;;;;;18.23;6.90;;;;;;;;;;5038734;28;20189;-78
2020/12/28 02:29:49;;;;;;;19.33;7.30;;;;;;;;;;5037059;28;20192;-79
2020/12/28 02:32:56;;;;;;;15.83;6.63;;;;;;;;;;5037188;28;20192;-81
2020/12/28 02:36:11;;;;;;;15.87;7.10;;;;;;;;;;5023009;28;20215;-79
2020/12/28 02:39:16;;;;;;;14.80;6.93;;;;;;;;;;5036033;28;20208;-79
2020/12/28 02:42:21;;;;;;;15.90;6.83;;;;;;;;;;5056184;28;20729;-80
2020/12/28 02:45:45;;;;;;;15.00;6.90;;;;;;;;;;5050384;28;20221;-79
2020/12/28 02:49:09;;;;;;;18.23;7.73;;;;;;;;;;5035922;28;20207;-79
2020/12/28 02:52:33;;;;;;;15.37;6.97;;;;;;;;;;5047014;28;20742;-79
2020/12/28 02:56:10;;;;;;;16.43;7.27;;;;;;;;;;5012610;28;20280;-78
2020/12/28 02:59:33;;;;;;;15.50;6.50;;;;;;;;;;5038713;28;20207;-80
2020/12/28 03:02:58;;;;;;;14.87;6.40;;;;;;;;;;5023285;28;20212;-80
2020/12/28 03:06:21;;;;;;;17.73;6.97;;;;;;;;;;5045172;28;20690;-80
2020/12/28 03:09:49;;;;;;;17.90;7.27;;;;;;;;;;5051518;28;20215;-80
2020/12/28 03:13:24;;;;;;;15.60;6.17;;;;;;;;;;5010712;28;20234;-80
2020/12/28 03:16:47;;;;;;;15.00;6.53;;;;;;;;;;5032356;28;20311;-80
2020/12/28 03:20:11;;;;;;;12.87;6.27;;;;;;;;;;5046192;28;20679;-79
2020/12/28 03:23:34;;;;;;;13.17;6.03;;;;;;;;;;5051099;28;20287;-80
2020/12/28 03:27:02;;;;;;;16.33;6.90;;;;;;;;;;5039316;28;20203;-80
2020/12/28 03:30:31;;;;;;;17.97;7.63;;;;;;;;;;5027577;28;20218;-79
2020/12/28 03:33:54;;;;;;;13.00;6.20;;;;;;;;;;5061551;28;20256;-78
2020/12/28 03:37:21;;;;;;;13.37;7.03;;;;;;;;;;5038070;28;20180;-79
2020/12/28 03:41:10;;;;;;;15.57;7.60;;;;;;;;;;5055113;28;20239;-78
2020/12/28 03:44:34;;;;;;;17.43;7.00;;;;;;;;;;5049802;28;20212;-79
2020/12/28 03:47:59;;;;;;;16.37;6.27;;;;;;;;;;5051153;28;20227;-80
2020/12/28 03:51:23;;;;;;;14.27;5.57;;;;;;;;;;5055867;28;20243;-79
2020/12/28 03:54:47;;;;;;;12.50;6.43;;;;;;;;;;5034623;28;20203;-79
2020/12/28 03:58:11;;;;;;;12.67;5.70;;;;;;;;;;5027189;28;20252;-79
2020/12/28 04:01:36;;;;;;;13.23;6.00;;;;;;;;;;5046747;28;20307;-79
2020/12/28 04:05:03;;;;;;;18.53;5.80;;;;;;;;;;5003214;28;21022;-80
2020/12/28 04:08:26;;;;;;;13.90;6.40;;;;;;;;;;5034608;28;20811;-79
2020/12/28 04:11:51;;;;;;;14.40;6.10;;;;;;;;;;5041977;28;20314;-79
2020/12/28 04:15:02;;;;;;;13.73;6.43;;;;;;;;;;5056113;28;20698;-78
2020/12/28 04:18:07;;;;;;;14.83;5.83;;;;;;;;;;5030915;28;20215;-79
2020/12/28 04:21:13;;;;;;;14.97;5.97;;;;;;;;;;5034317;28;20230;-78
2020/12/28 04:24:17;;;;;;;14.87;6.87;;;;;;;;;;5040727;28;20237;-78
2020/12/28 04:27:21;;;;;;;17.63;6.73;;;;;;;;;;5041560;28;20274;-78
2020/12/28 04:30:26;;;;;;;13.37;6.63;;;;;;;;;;5058553;28;20269;-78
2020/12/28 04:33:31;;;;;;;17.37;6.13;;;;;;;;;;5041074;28;20198;-78
2020/12/28 04:36:38;;;;;;;18.73;7.13;;;;;;;;;;5044933;28;20215;-78
2020/12/28 04:39:43;;;;;;;15.97;5.30;;;;;;;;;;5042956;28;20207;-79
2020/12/28 04:42:47;;;;;;;13.43;5.60;;;;;;;;;;5050481;28;20319;-79
2020/12/28 04:45:53;;;;;;;14.10;5.90;;;;;;;;;;5042605;28;20198;-79
2020/12/28 04:48:58;;;;;;;13.90;5.87;;;;;;;;;;5022436;28;20231;-79
2020/12/28 04:52:04;;;;;;;18.17;6.67;;;;;;;;;;5041759;28;20256;-79
2020/12/28 04:55:08;;;;;;;20.50;6.50;;;;;;;;;;5054528;28;20238;-80
2020/12/28 04:58:14;;;;;;;16.57;6.40;;;;;;;;;;5039006;28;20207;-78
2020/12/28 05:01:20;;;;;;;13.37;6.00;;;;;;;;;;5039093;28;20940;-78
2020/12/28 05:04:25;;;;;;;16.07;6.37;;;;;;;;;;5049043;28;20701;-78
2020/12/28 05:07:32;;;;;;;14.57;5.70;;;;;;;;;;5023916;28;20211;-78
2020/12/28 05:10:37;;;;;;;15.93;6.60;;;;;;;;;;5053742;28;20236;-78
2020/12/28 05:13:47;;;;;;;13.83;6.10;;;;;;;;;;5039380;28;20219;-78
2020/12/28 05:16:57;;;;;;;19.63;6.70;;;;;;;;;;5045465;28;20270;-78
2020/12/28 05:20:02;;;;;;;18.03;6.83;;;;;;;;;;5038494;28;20215;-78
2020/12/28 05:23:08;;;;;;;13.20;6.07;;;;;;;;;;5037326;28;20238;-77
2020/12/28 05:26:14;;;;;;;13.83;6.47;;;;;;;;;;5058859;28;20632;-77
2020/12/28 05:29:20;;;;;;;12.90;6.17;;;;;;;;;;5046827;28;20256;-77
2020/12/28 05:32:25;;;;;;;13.40;5.90;;;;;;;;;;5035860;28;20247;-78
2020/12/28 05:35:30;;;;;;;14.97;6.10;;;;;;;;;;5032967;28;20399;-78
2020/12/28 05:38:36;;;;;;;16.60;6.20;;;;;;;;;;5031290;28;20215;-78
2020/12/28 05:41:53;;;;;;;15.87;7.10;;;;;;;;;;5050840;28;20258;-78
2020/12/28 05:45:07;;;;;;;16.47;6.60;;;;;;;;;;5031659;28;20212;-78
2020/12/28 05:48:17;;;;;;;14.00;6.80;;;;;;;;;;5053849;28;20207;-78
2020/12/28 05:51:22;;;;;;;11.93;5.80;;;;;;;;;;5035959;28;20235;-78
2020/12/28 05:54:29;;;;;;;11.97;5.77;;;;;;;;;;5039738;28;20198;-78
2020/12/28 05:57:34;;;;;;;14.83;6.03;;;;;;;;;;5035388;28;20223;-78
2020/12/28 06:00:38;;;;;;;13.20;6.73;;;;;;;;;;5045618;28;20361;-78
2020/12/28 06:03:43;;;;;;;16.07;5.97;;;;;;;;;;5021506;28;20216;-80
2020/12/28 06:06:48;;;;;;;15.07;5.97;;;;;;;;;;5044440;28;20280;-76
2020/12/28 06:09:58;;;;;;;12.80;5.90;;;;;;;;;;5048630;28;20207;-77
2020/12/28 06:13:02;;;;;;;16.77;6.57;;;;;;;;;;5062869;28;20195;-79
2020/12/28 06:16:07;;;;;;;14.33;7.13;;;;;;;;;;5048796;28;20255;-79
2020/12/28 06:19:22;;;;;;;20.17;7.27;;;;;;;;;;5030298;28;20973;-79
2020/12/28 06:22:27;;;;;;;17.30;6.80;;;;;;;;;;5035867;28;20232;-78
2020/12/28 06:25:33;;;;;;;13.77;6.33;;;;;;;;;;5034360;28;20222;-79
2020/12/28 06:28:37;;;;;;;12.77;6.17;;;;;;;;;;5031845;28;20239;-79
2020/12/28 06:31:42;;;;;;;13.43;6.37;;;;;;;;;;5040534;28;20250;-79
2020/12/28 06:34:48;;;;;;;14.70;5.87;;;;;;;;;;5053496;28;20211;-79
2020/12/28 06:37:55;;;;;;;14.73;6.03;;;;;;;;;;5043698;28;20338;-79
2020/12/28 06:41:00;;;;;;;18.03;5.93;;;;;;;;;;5038937;28;20229;-79
2020/12/28 06:44:05;;;;;;;13.47;5.93;;;;;;;;;;5047674;28;20223;-79
2020/12/28 06:47:22;;;;;;;16.17;6.60;;;;;;;;;;5048164;28;20196;-79
2020/12/28 06:50:26;;;;;;;12.93;6.27;;;;;;;;;;5039254;28;20220;-79
2020/12/28 06:53:31;;;;;;;12.93;5.77;;;;;;;;;;5046075;28;20230;-79
2020/12/28 06:56:37;;;;;;;15.07;6.33;;;;;;;;;;5061182;28;20266;-80
2020/12/28 06:59:49;;;;;;;12.33;6.20;;;;;;;;;;5044557;28;20211;-79
2020/12/28 07:02:54;;;;;;;12.83;5.60;;;;;;;;;;5020105;28;20208;-78
2020/12/28 07:05:59;;;;;;;12.73;6.03;;;;;;;;;;5046217;28;20203;-78
2020/12/28 07:09:07;;;;;;;13.93;6.00;;;;;;;;;;5032991;28;20218;-79
2020/12/28 07:12:12;;;;;;;18.30;5.80;;;;;;;;;;5036487;28;20227;-80
2020/12/28 07:15:18;;;;;;;13.07;5.70;;;;;;;;;;5045190;28;20695;-79
2020/12/28 07:18:22;;;;;;;15.47;5.90;;;;;;;;;;5038201;28;20282;-79
2020/12/28 07:21:27;;;;;;;14.23;6.07;;;;;;;;;;5040825;28;20239;-79
2020/12/28 07:24:32;;;;;;;16.57;6.70;;;;;;;;;;5051705;28;20641;-79
2020/12/28 07:27:39;;;;;;;14.27;6.30;;;;;;;;;;5040228;28;20206;-79
2020/12/28 07:30:44;;;;;;;12.87;5.63;;;;;;;;;;5027806;28;20267;-80
2020/12/28 07:33:49;;;;;;;17.30;6.43;;;;;;;;;;5037825;28;20220;-79
2020/12/28 07:36:54;;;;;;;13.83;6.30;;;;;;;;;;5054008;28;20226;-78
2020/12/28 07:39:59;;;;;;;17.10;6.90;;;;;;;;;;5055340;28;20191;-79
2020/12/28 07:43:10;;;;;;;23.37;8.77;;;;;;;;;;5049401;28;20210;-80
2020/12/28 07:46:19;;;;;;;19.37;7.20;;;;;;;;;;5041606;28;20311;-79
2020/12/28 07:49:25;;;;;;;18.77;8.60;;;;;;;;;;5039459;28;20215;-79
2020/12/28 07:52:31;;;;;;;18.47;7.23;;;;;;;;;;5058749;28;20234;-79
2020/12/28 07:55:39;;;;;;;18.93;8.63;;;;;;;;;;5046175;28;20273;-79
2020/12/28 07:58:48;;;;;;;12.53;5.87;;;;;;;;;;5034470;28;20733;-79
2020/12/28 08:01:53;;;;;;;17.07;7.77;;;;;;;;;;5063347;28;20254;-79
2020/12/28 08:04:58;;;;;;;15.27;6.47;;;;;;;;;;5043570;28;20211;-79
2020/12/28 08:08:03;;;;;;;15.80;6.53;;;;;;;;;;5050361;28;20633;-79
2020/12/28 08:11:12;;;;;;;20.00;7.37;;;;;;;;;;5060293;28;20216;-79
2020/12/28 08:14:19;;;;;;;15.43;6.80;;;;;;;;;;5041013;28;20200;-78
2020/12/28 08:17:24;;;;;;;17.87;7.30;;;;;;;;;;5052659;28;20250;-79
2020/12/28 08:21:13;;;;;;;19.70;7.67;;;;;;;;;;5079488;28;20202;-79
2020/12/28 08:24:18;;;;;;;16.43;7.80;;;;;;;;;;5050032;28;20367;-79
2020/12/28 08:27:24;;;;;;;18.50;6.70;;;;;;;;;;5059533;28;20210;-78
2020/12/28 08:30:31;;;;;;;18.60;7.30;;;;;;;;;;5038157;28;20319;-79
2020/12/28 08:33:36;;;;;;;21.10;8.00;;;;;;;;;;5039312;28;20316;-79
2020/12/28 08:36:42;;;;;;;19.83;7.87;;;;;;;;;;5051188;28;20219;-79
2020/12/28 08:39:47;;;;;;;15.83;6.60;;;;;;;;;;5056521;28;20250;-79
2020/12/28 08:42:55;;;;;;;18.60;7.43;;;;;;;;;;5023983;28;20750;-79
2020/12/28 08:46:05;;;;;;;17.57;6.80;;;;;;;;;;5048785;28;20207;-79
2020/12/28 08:49:10;;;;;;;15.70;7.00;;;;;;;;;;5020352;28;20208;-79
2020/12/28 08:52:15;;;;;;;16.37;7.10;;;;;;;;;;5042959;28;20250;-79
2020/12/28 08:55:20;;;;;;;16.00;7.33;;;;;;;;;;5027974;28;20208;-79
2020/12/28 08:58:24;;;;;;;19.03;6.43;;;;;;;;;;5038013;28;20226;-78
2020/12/28 09:01:30;;;;;;;17.40;6.93;;;;;;;;;;5040732;28;20247;-79
2020/12/28 09:04:35;;;;;;;21.13;10.47;;;;;;;;;;5032963;28;20277;-79
2020/12/28 09:07:40;;;;;;;18.47;8.60;;;;;;;;;;5061060;28;20219;-78
2020/12/28 09:10:54;;;;;;;15.60;7.50;;;;;;;;;;5076015;28;20219;-77
2020/12/28 09:14:04;;;;;;;18.20;8.03;;;;;;;;;;5047570;28;20239;-79
2020/12/28 09:17:09;;;;;;;18.13;7.60;;;;;;;;;;5046075;28;20267;-79
2020/12/28 09:20:14;;;;;;;23.40;10.27;;;;;;;;;;5045916;28;20211;-79
2020/12/28 09:23:19;;;;;;;18.07;8.70;;;;;;;;;;5040135;28;20207;-79
2020/12/28 09:26:24;;;;;;;23.70;8.23;;;;;;;;;;5037878;28;20253;-79
2020/12/28 09:29:29;;;;;;;22.37;9.37;;;;;;;;;;5039271;28;20588;-79
2020/12/28 09:32:34;;;;;;;19.53;9.23;;;;;;;;;;5036375;28;20242;-79
2020/12/28 09:35:48;;;;;;;18.07;8.63;;;;;;;;;;5044885;28;20211;-80
2020/12/28 09:39:06;;;;;;;25.67;10.20;;;;;;;;;;5038717;28;20260;-80
2020/12/28 09:42:21;;;;;;;19.70;8.97;;;;;;;;;;5054584;28;20238;-80
2020/12/28 09:45:38;;;;;;;19.97;8.53;;;;;;;;;;5046177;28;20239;-79
2020/12/28 09:48:43;;;;;;;19.53;9.07;;;;;;;;;;5031736;28;20943;-80
2020/12/28 09:51:52;;;;;;;26.57;11.10;;;;;;;;;;5046057;28;20231;-79
2020/12/28 09:54:57;;;;;;;28.33;11.73;;;;;;;;;;5037991;28;20216;-79
2020/12/28 09:58:02;;;;;;;36.30;12.10;;;;;;;;;;5050282;28;20263;-79
2020/12/28 10:01:07;;;;;;;25.37;10.47;;;;;;;;;;5042879;28;20701;-79
2020/12/28 10:04:13;;;;;;;26.60;10.93;;;;;;;;;;5046891;28;20227;-79
2020/12/28 10:07:18;;;;;;;26.00;10.70;;;;;;;;;;5045476;28;20203;-77
2020/12/28 10:10:23;;;;;;;26.43;11.30;;;;;;;;;;5045574;28;20284;-78
2020/12/28 10:13:28;;;;;;;36.70;15.53;;;;;;;;;;5030126;28;20250;-78
2020/12/28 10:16:32;;;;;;;42.43;16.93;;;;;;;;;;5030279;28;20266;-78
2020/12/28 10:19:38;;;;;;;42.80;15.73;;;;;;;;;;5027227;28;20237;-78
2020/12/28 10:22:43;;;;;;;33.30;14.60;;;;;;;;;;5026236;28;20368;-78
2020/12/28 10:25:48;;;;;;;33.43;14.97;;;;;;;;;;5048292;28;20736;-78
2020/12/28 10:28:53;;;;;;;32.60;13.40;;;;;;;;;;5035241;28;20275;-77
2020/12/28 10:31:58;;;;;;;31.17;12.87;;;;;;;;;;5056247;28;20222;-78
2020/12/28 10:35:03;;;;;;;28.43;13.03;;;;;;;;;;5062951;28;20206;-77
2020/12/28 10:38:21;;;;;;;27.60;11.83;;;;;;;;;;5047740;28;20199;-78
2020/12/28 10:41:27;;;;;;;23.93;11.30;;;;;;;;;;5036603;28;20585;-77
2020/12/28 10:44:32;;;;;;;26.43;11.97;;;;;;;;;;5035604;28;20722;-77
2020/12/28 10:47:37;;;;;;;23.80;9.53;;;;;;;;;;5044117;28;20230;-77
2020/12/28 10:50:42;;;;;;;24.07;10.33;;;;;;;;;;5044834;28;20210;-78
2020/12/28 10:53:47;;;;;;;27.40;11.93;;;;;;;;;;5049875;28;20203;-77
2020/12/28 10:56:52;;;;;;;30.13;12.17;;;;;;;;;;5030711;28;20254;-77
2020/12/28 10:59:57;;;;;;;31.00;13.13;;;;;;;;;;5029921;28;20239;-78
2020/12/28 11:03:02;;;;;;;33.70;14.60;;;;;;;;;;5028160;28;20747;-78
2020/12/28 11:06:07;;;;;;;25.83;9.83;;;;;;;;;;5053112;28;20195;-78
2020/12/28 11:09:12;;;;;;;19.23;8.60;;;;;;;;;;5018917;28;20204;-79
2020/12/28 11:12:16;;;;;;;18.80;8.50;;;;;;;;;;5030416;28;20236;-78
2020/12/28 11:15:21;;;;;;;17.73;8.33;;;;;;;;;;5020791;28;20300;-78
2020/12/28 11:18:25;;;;;;;22.70;10.50;;;;;;;;;;5031891;28;20207;-79
2020/12/28 11:21:31;;;;;;;28.77;11.40;;;;;;;;;;5024578;28;20235;-78
2020/12/28 11:24:36;;;;;;;24.00;11.83;;;;;;;;;;5038012;28;20310;-79
2020/12/28 11:27:40;;;;;;;24.17;11.17;;;;;;;;;;5066996;28;20215;-79
2020/12/28 11:30:48;;;;;;;24.97;11.07;;;;;;;;;;5028831;28;20300;-77
2020/12/28 11:33:57;;;;;;;24.77;10.40;;;;;;;;;;5044141;28;20741;-79
2020/12/28 11:37:05;;;;;;;27.87;10.90;;;;;;;;;;5034354;28;20288;-78
2020/12/28 11:40:09;;;;;;;21.23;9.60;;;;;;;;;;5030083;28;20211;-79
2020/12/28 11:43:14;;;;;;;31.73;13.10;;;;;;;;;;5055173;28;20218;-79
2020/12/28 11:46:19;;;;;;;33.97;12.90;;;;;;;;;;5029300;28;20213;-79
2020/12/28 11:49:25;;;;;;;29.03;11.47;;;;;;;;;;5044287;28;20215;-78
2020/12/28 11:52:33;;;;;;;36.73;14.53;;;;;;;;;;5036314;28;20266;-78
2020/12/28 11:58:57;;;;;;;33.17;12.40;;;;;;;;;;5028868;28;20208;-78
2020/12/28 12:02:02;;;;;;;29.60;11.30;;;;;;;;;;5033890;28;20686;-78
2020/12/28 12:05:07;;;;;;;56.33;19.23;;;;;;;;;;5024666;28;20216;-79
2020/12/28 12:08:13;;;;;;;42.27;16.00;;;;;;;;;;5035282;28;20196;-79
2020/12/28 12:11:17;;;;;;;28.70;11.50;;;;;;;;;;5025600;28;20247;-79
2020/12/28 12:14:22;;;;;;;23.17;10.00;;;;;;;;;;5032793;28;20235;-78
2020/12/28 12:17:28;;;;;;;15.33;6.90;;;;;;;;;;5041513;28;20618;-78
2020/12/28 12:20:32;;;;;;;13.53;5.80;;;;;;;;;;5020771;28;20240;-78
2020/12/28 12:23:38;;;;;;;13.33;6.40;;;;;;;;;;5029365;28;20211;-79
2020/12/28 12:26:43;;;;;;;14.27;6.47;;;;;;;;;;5030036;28;20216;-78
2020/12/28 12:29:47;;;;;;;15.77;6.83;;;;;;;;;;5024434;28;20214;-78
2020/12/28 12:32:52;;;;;;;20.80;9.10;;;;;;;;;;5018193;28;20240;-78
2020/12/28 12:35:57;;;;;;;42.27;17.93;;;;;;;;;;5038590;28;20199;-78
2020/12/28 12:39:02;;;;;;;29.03;11.13;;;;;;;;;;5026423;28;20199;-78
2020/12/28 12:42:08;;;;;;;19.63;8.13;;;;;;;;;;5030080;28;20244;-78
2020/12/28 12:45:12;;;;;;;16.93;7.97;;;;;;;;;;5036616;28;20215;-79
2020/12/28 12:48:17;;;;;;;13.43;6.50;;;;;;;;;;5030599;28;20269;-79
2020/12/28 12:51:23;;;;;;;15.83;7.50;;;;;;;;;;5046010;28;20225;-80
2020/12/28 12:54:30;;;;;;;17.60;7.50;;;;;;;;;;5060883;28;20193;-79
2020/12/28 12:57:35;;;;;;;13.70;6.73;;;;;;;;;;5050274;28;20215;-79
2020/12/28 13:00:40;;;;;;;14.20;6.47;;;;;;;;;;5047863;28;20203;-79
2020/12/28 13:03:45;;;;;;;11.17;4.77;;;;;;;;;;5043235;28;20199;-79
2020/12/28 13:06:50;;;;;;;10.10;4.63;;;;;;;;;;5029441;28;20227;-79
2020/12/28 13:09:57;;;;;;;9.83;4.53;;;;;;;;;;5028584;28;20639;-79
2020/12/28 13:13:01;;;;;;;12.90;5.50;;;;;;;;;;5052463;28;20215;-79
2020/12/28 13:16:06;;;;;;;9.80;4.60;;;;;;;;;;5031409;28;20296;-79
2020/12/28 13:19:10;;;;;;;15.47;5.10;;;;;;;;;;5036084;28;20254;-79
2020/12/28 13:22:16;;;;;;;11.77;4.73;;;;;;;;;;5049535;28;20235;-78
2020/12/28 13:25:21;;;;;;;10.03;4.53;;;;;;;;;;5063304;28;20207;-77
2020/12/28 13:28:26;;;;;;;9.83;4.97;;;;;;;;;;5049411;28;20215;-78
2020/12/28 13:31:32;;;;;;;9.97;4.53;;;;;;;;;;5041329;28;20236;-78
2020/12/28 13:34:37;;;;;;;10.23;5.37;;;;;;;;;;5062146;28;20260;-78
2020/12/28 13:37:42;;;;;;;9.83;4.70;;;;;;;;;;5040389;28;20242;-78
2020/12/28 13:40:49;;;;;;;16.13;5.83;;;;;;;;;;5044074;28;20211;-77
2020/12/28 13:43:53;;;;;;;13.43;5.30;;;;;;;;;;5048405;28;20199;-78
2020/12/28 13:46:59;;;;;;;14.23;4.90;;;;;;;;;;5049627;28;20234;-78
2020/12/28 13:50:08;;;;;;;9.93;4.73;;;;;;;;;;5048357;28;20198;-78
2020/12/28 13:53:17;;;;;;;12.00;5.00;;;;;;;;;;5046759;28;20206;-79
2020/12/28 13:56:23;;;;;;;11.43;4.93;;;;;;;;;;5020359;28;20251;-79
2020/12/28 13:59:28;;;;;;;11.23;5.23;;;;;;;;;;5020357;28;20251;-79
2020/12/28 14:02:32;;;;;;;16.37;6.33;;;;;;;;;;5034794;28;20246;-80
2020/12/28 14:05:37;;;;;;;12.80;5.87;;;;;;;;;;5045393;28;20206;-80
2020/12/28 14:08:42;;;;;;;18.10;8.00;;;;;;;;;;5038832;28;20223;-79
2020/12/28 14:11:48;;;;;;;13.90;5.20;;;;;;;;;;5043709;28;20230;-79
2020/12/28 14:14:53;;;;;;;17.57;5.40;;;;;;;;;;5030662;28;20263;-79
2020/12/28 14:17:58;;;;;;;13.57;5.40;;;;;;;;;;5036495;28;20244;-79
2020/12/28 14:21:03;;;;;;;45.27;15.27;;;;;;;;;;5038828;28;20235;-78
2020/12/28 14:24:07;;;;;;;47.83;16.83;;;;;;;;;;5030513;28;20224;-77
2020/12/28 14:27:23;;;;;;;18.00;6.87;;;;;;;;;;5027545;28;20244;-78
2020/12/28 14:30:27;;;;;;;20.03;7.10;;;;;;;;;;5030210;28;20220;-79
2020/12/28 14:33:32;;;;;;;16.53;6.40;;;;;;;;;;5035007;28;20208;-78
2020/12/28 14:36:36;;;;;;;22.43;8.67;;;;;;;;;;5038462;28;20203;-78
2020/12/28 14:39:41;;;;;;;25.07;9.67;;;;;;;;;;5050814;28;20219;-77
2020/12/28 14:42:47;;;;;;;15.87;6.53;;;;;;;;;;5044436;28;20253;-77
2020/12/28 14:45:54;;;;;;;19.17;7.33;;;;;;;;;;5032402;28;20238;-76
2020/12/28 14:48:58;;;;;;;19.00;8.13;;;;;;;;;;5047341;28;20268;-77
2020/12/28 14:52:03;;;;;;;19.13;7.67;;;;;;;;;;5050015;28;20274;-77
2020/12/28 14:55:07;;;;;;;26.63;9.40;;;;;;;;;;5041377;28;20298;-77
2020/12/28 14:58:13;;;;;;;22.20;7.87;;;;;;;;;;5039486;28;20219;-78
2020/12/28 15:01:18;;;;;;;21.50;9.03;;;;;;;;;;5048075;28;20258;-78
2020/12/28 15:04:23;;;;;;;18.20;8.27;;;;;;;;;;5039126;28;20224;-78
2020/12/28 15:07:29;;;;;;;26.73;9.53;;;;;;;;;;5037058;28;20965;-78
2020/12/28 15:10:35;;;;;;;18.37;7.87;;;;;;;;;;5031244;28;20710;-79
2020/12/28 15:13:40;;;;;;;17.50;7.63;;;;;;;;;;5040141;28;20214;-78
2020/12/28 15:16:45;;;;;;;22.73;8.87;;;;;;;;;;5032244;28;20308;-78
2020/12/28 15:19:49;;;;;;;19.70;8.23;;;;;;;;;;5025939;28;20208;-79
2020/12/28 15:22:54;;;;;;;19.03;7.80;;;;;;;;;;5042693;28;20239;-79
2020/12/28 15:26:00;;;;;;;18.87;8.27;;;;;;;;;;5052869;28;20199;-78
2020/12/28 15:29:05;;;;;;;19.80;7.60;;;;;;;;;;5044614;28;20235;-79
2020/12/28 15:32:09;;;;;;;13.67;6.17;;;;;;;;;;5038701;28;20246;-79
2020/12/28 15:35:14;;;;;;;15.97;6.13;;;;;;;;;;5034820;28;20258;-78
2020/12/28 15:38:19;;;;;;;14.93;5.83;;;;;;;;;;5018313;28;20223;-78
2020/12/28 15:41:24;;;;;;;18.43;7.03;;;;;;;;;;5032260;28;20380;-79
2020/12/28 15:44:30;;;;;;;11.87;4.93;;;;;;;;;;5019099;28;20326;-78
2020/12/28 15:47:35;;;;;;;12.43;5.23;;;;;;;;;;5020699;28;20231;-78
2020/12/28 15:50:39;;;;;;;20.00;7.60;;;;;;;;;;5053297;28;20206;-76
2020/12/28 15:53:46;;;;;;;19.17;7.40;;;;;;;;;;5036440;28;20227;-77
2020/12/28 15:56:53;;;;;;;16.03;6.93;;;;;;;;;;5045144;28;20258;-77
2020/12/28 15:59:59;;;;;;;15.77;7.07;;;;;;;;;;5013854;28;20204;-77
2020/12/28 16:03:05;;;;;;;17.33;6.90;;;;;;;;;;5015525;28;20598;-78
2020/12/28 16:06:11;;;;;;;19.57;7.50;;;;;;;;;;5044651;28;20198;-77
2020/12/28 16:09:22;;;;;;;18.57;6.87;;;;;;;;;;5070167;28;20253;-77
2020/12/28 16:12:30;;;;;;;17.67;6.83;;;;;;;;;;5074151;28;20214;-76
2020/12/28 16:15:37;;;;;;;17.13;6.70;;;;;;;;;;5045787;28;20265;-77
2020/12/28 16:18:47;;;;;;;11.27;5.17;;;;;;;;;;5046632;28;20722;-78
2020/12/28 16:21:52;;;;;;;15.30;5.60;;;;;;;;;;5032858;28;20251;-77
2020/12/28 16:24:59;;;;;;;17.03;6.17;;;;;;;;;;5031127;28;20245;-77
2020/12/28 16:28:04;;;;;;;12.13;5.60;;;;;;;;;;5054047;28;20243;-77
2020/12/28 16:31:12;;;;;;;13.67;5.70;;;;;;;;;;5039181;28;20671;-78
2020/12/28 16:34:22;;;;;;;16.23;5.77;;;;;;;;;;5024584;28;20805;-77
2020/12/28 16:37:28;;;;;;;13.37;6.27;;;;;;;;;;5039169;28;20606;-78
2020/12/28 16:40:35;;;;;;;16.83;5.90;;;;;;;;;;5032159;28;20272;-78
2020/12/28 16:43:40;;;;;;;15.43;5.90;;;;;;;;;;5031005;28;20615;-78
2020/12/28 16:46:46;;;;;;;13.47;5.97;;;;;;;;;;5026728;28;20438;-78
2020/12/28 16:50:00;;;;;;;16.17;6.53;;;;;;;;;;5047819;28;20211;-79
2020/12/28 16:53:11;;;;;;;21.03;7.13;;;;;;;;;;5052578;28;20203;-79
2020/12/28 16:56:16;;;;;;;15.23;6.03;;;;;;;;;;5045870;28;20222;-79
2020/12/28 16:59:21;;;;;;;13.53;6.03;;;;;;;;;;5039110;28;20207;-78
2020/12/28 17:02:27;;;;;;;15.77;6.77;;;;;;;;;;5041021;28;20227;-80
2020/12/28 17:05:31;;;;;;;19.17;7.60;;;;;;;;;;5049007;28;20223;-77
2020/12/28 17:08:37;;;;;;;15.47;7.77;;;;;;;;;;5040556;28;20718;-83
2020/12/28 17:11:42;;;;;;;16.10;7.47;;;;;;;;;;5035439;28;20270;-79
2020/12/28 17:14:47;;;;;;;15.53;7.23;;;;;;;;;;5028561;28;20223;-79
2020/12/28 17:17:53;;;;;;;16.47;6.87;;;;;;;;;;5038339;28;20727;-78
2020/12/28 17:20:57;;;;;;;15.40;6.60;;;;;;;;;;5047077;28;20234;-79
2020/12/28 17:24:06;;;;;;;16.07;6.13;;;;;;;;;;5048137;28;20215;-80
2020/12/28 17:27:12;;;;;;;15.53;6.17;;;;;;;;;;5052144;28;20211;-78
2020/12/28 17:30:19;;;;;;;15.90;5.83;;;;;;;;;;5050614;28;20217;-79
2020/12/28 17:33:25;;;;;;;11.50;5.20;;;;;;;;;;5057726;28;20568;-79
2020/12/28 17:36:33;;;;;;;12.70;5.37;;;;;;;;;;5038867;28;20216;-78
2020/12/28 17:39:38;;;;;;;16.50;5.77;;;;;;;;;;5058806;28;20250;-78
2020/12/28 17:42:43;;;;;;;14.37;5.77;;;;;;;;;;5048101;28;20237;-78
2020/12/28 17:45:48;;;;;;;18.07;5.80;;;;;;;;;;5056787;28;20214;-78
2020/12/28 17:48:54;;;;;;;14.27;6.00;;;;;;;;;;5058623;28;20172;-79
2020/12/28 17:51:59;;;;;;;12.83;6.27;;;;;;;;;;5055527;28;20752;-78
2020/12/28 17:55:04;;;;;;;13.27;6.00;;;;;;;;;;5052629;28;20683;-79
2020/12/28 17:58:08;;;;;;;14.47;5.83;;;;;;;;;;5056135;28;20215;-79
2020/12/28 18:01:16;;;;;;;12.83;5.30;;;;;;;;;;5046192;28;20782;-79
2020/12/28 18:04:22;;;;;;;14.10;5.97;;;;;;;;;;5043492;28;20253;-79
2020/12/28 18:07:27;;;;;;;13.47;6.27;;;;;;;;;;5034454;28;20303;-79
2020/12/28 18:10:31;;;;;;;14.63;6.00;;;;;;;;;;5033714;28;20585;-81
2020/12/28 18:13:37;;;;;;;12.60;6.47;;;;;;;;;;5036624;28;20273;-80
2020/12/28 18:16:45;;;;;;;31.07;11.57;;;;;;;;;;5023404;28;20276;-81
2020/12/28 18:19:50;;;;;;;23.77;8.60;;;;;;;;;;5047034;28;20200;-80
2020/12/28 18:22:55;;;;;;;19.80;8.00;;;;;;;;;;5046668;28;20230;-77
2020/12/28 18:26:00;;;;;;;18.43;7.13;;;;;;;;;;5051774;28;20226;-79
2020/12/28 18:29:05;;;;;;;18.57;8.47;;;;;;;;;;5049074;28;20199;-78
2020/12/28 18:32:09;;;;;;;17.73;8.30;;;;;;;;;;5030189;28;20248;-79